createdAt,value
2023-05-19T00:02:00.717Z,12.64
2023-05-19T00:04:29.196Z,12.62
2023-05-19T00:06:59.488Z,12.60
2023-05-19T00:09:27.957Z,12.59
2023-05-19T00:11:56.869Z,12.57
2023-05-19T00:14:25.154Z,12.56
2023-05-19T00:16:53.605Z,12.54
2023-05-19T00:19:24.989Z,12.53
2023-05-19T00:21:53.182Z,12.51
2023-05-19T00:24:21.274Z,12.48
2023-05-19T00:26:49.454Z,12.47
2023-05-19T00:29:19.096Z,12.45
2023-05-19T00:31:47.727Z,12.42
2023-05-19T00:34:15.860Z,12.39
2023-05-19T00:36:43.924Z,12.38
2023-05-19T00:39:15.312Z,12.36
2023-05-19T00:41:43.720Z,12.34
2023-05-19T00:44:11.893Z,12.33
2023-05-19T00:46:41.498Z,12.31
2023-05-19T00:49:09.806Z,12.29
2023-05-19T00:51:38.017Z,12.27
2023-05-19T00:54:06.266Z,12.26
2023-05-19T00:56:34.420Z,12.25
2023-05-19T00:59:03.150Z,12.24
2023-05-19T01:01:32.546Z,12.23
2023-05-19T01:04:02.088Z,12.23
2023-05-19T01:06:30.267Z,12.22
2023-05-19T01:08:58.662Z,12.21
2023-05-19T01:11:26.901Z,12.21
2023-05-19T01:13:55.921Z,12.20
2023-05-19T01:16:40.358Z,12.20
2023-05-19T01:19:14.494Z,12.20
2023-05-19T01:22:01.610Z,12.19
2023-05-19T01:24:30.623Z,12.19
2023-05-19T01:27:44.194Z,12.18
2023-05-19T01:30:23.350Z,12.17
2023-05-19T01:32:54.683Z,12.17
2023-05-19T01:35:26.309Z,12.17
2023-05-19T01:37:57.703Z,12.16
2023-05-19T01:40:27.384Z,12.16
2023-05-19T01:42:58.400Z,12.16
2023-05-19T01:45:29.460Z,12.16
2023-05-19T01:48:01.195Z,12.17
2023-05-19T01:50:30.922Z,12.18
2023-05-19T01:53:00.717Z,12.19
2023-05-19T01:55:29.119Z,12.20
2023-05-19T01:58:21.156Z,12.20
2023-05-19T02:01:11.517Z,12.21
2023-05-19T02:03:58.365Z,12.22
2023-05-19T02:06:37.158Z,12.23
2023-05-19T02:09:16.168Z,12.23
2023-05-19T02:11:53.330Z,12.22
2023-05-19T02:14:30.166Z,12.22
2023-05-19T02:16:59.628Z,12.22
2023-05-19T02:19:32.896Z,12.23
2023-05-19T02:22:01.118Z,12.24
2023-05-19T02:24:29.275Z,12.23
2023-05-19T02:26:57.521Z,12.22
2023-05-19T02:29:26.053Z,12.21
2023-05-19T02:31:54.360Z,12.21
2023-05-19T02:34:23.010Z,12.22
2023-05-19T02:36:51.792Z,12.21
2023-05-19T02:39:20.079Z,12.22
2023-05-19T02:41:48.542Z,12.21
2023-05-19T02:44:16.721Z,12.23
2023-05-19T02:46:44.893Z,12.23
2023-05-19T02:49:13.234Z,12.24
2023-05-19T02:51:41.492Z,12.24
2023-05-19T02:54:09.566Z,12.25
2023-05-19T02:56:37.688Z,12.25
2023-05-19T02:59:06.328Z,12.25
2023-05-19T03:01:34.640Z,12.25
2023-05-19T03:04:02.905Z,12.24
2023-05-19T03:06:32.861Z,12.22
2023-05-19T03:09:01.116Z,12.21
2023-05-19T03:11:31.039Z,12.20
2023-05-19T03:13:59.201Z,12.19
2023-05-19T03:16:28.354Z,12.19
2023-05-19T03:18:56.798Z,12.18
2023-05-19T03:21:25.095Z,12.17
2023-05-19T03:23:54.728Z,12.18
2023-05-19T03:26:23.216Z,12.18
2023-05-19T03:28:51.856Z,12.18
2023-05-19T03:31:20.462Z,12.19
2023-05-19T03:33:48.759Z,12.21
2023-05-19T03:36:17.842Z,12.22
2023-05-19T03:38:46.239Z,12.25
2023-05-19T03:41:14.338Z,12.27
2023-05-19T03:43:42.544Z,12.29
2023-05-19T03:46:11.057Z,12.33
2023-05-19T03:48:47.911Z,12.37
2023-05-19T03:51:18.854Z,12.42
2023-05-19T03:53:48.702Z,12.47
2023-05-19T03:56:18.334Z,12.51
2023-05-19T03:58:47.182Z,12.55
2023-05-19T04:01:16.455Z,12.59
2023-05-19T04:03:44.782Z,12.63
2023-05-19T04:06:13.704Z,12.65
2023-05-19T04:08:41.840Z,12.66
2023-05-19T04:11:10.204Z,12.68
2023-05-19T04:13:38.359Z,12.71
2023-05-19T04:16:07.296Z,12.75
2023-05-19T04:18:35.558Z,12.80
2023-05-19T04:21:05.825Z,12.85
2023-05-19T04:23:34.198Z,12.92
2023-05-19T04:26:03.762Z,12.99
2023-05-19T04:28:32.245Z,13.07
2023-05-19T04:31:00.503Z,13.18
2023-05-19T04:33:29.338Z,13.30
2023-05-19T04:35:58.481Z,13.39
2023-05-19T04:38:28.348Z,13.46
2023-05-19T04:40:56.601Z,13.52
2023-05-19T04:43:25.411Z,13.55
2023-05-19T04:45:53.511Z,13.57
2023-05-19T04:48:23.236Z,13.60
2023-05-19T04:50:52.093Z,13.68
2023-05-19T04:53:21.798Z,13.80
2023-05-19T04:55:50.418Z,13.89
2023-05-19T04:58:19.856Z,13.96
2023-05-19T05:00:48.481Z,14.04
2023-05-19T05:03:17.948Z,14.08
2023-05-19T05:05:46.886Z,14.14
2023-05-19T05:08:22.873Z,14.24
2023-05-19T05:10:52.815Z,14.39
2023-05-19T05:13:23.897Z,14.53
2023-05-19T05:15:52.576Z,14.67
2023-05-19T05:18:21.823Z,14.87
2023-05-19T05:20:50.236Z,15.05
2023-05-19T05:23:18.811Z,15.16
2023-05-19T05:25:48.322Z,15.27
2023-05-19T05:28:17.240Z,15.42
2023-05-19T05:30:46.484Z,15.57
2023-05-19T05:33:19.642Z,15.67
2023-05-19T05:35:50.139Z,15.77
2023-05-19T05:38:18.527Z,15.86
2023-05-19T05:40:46.768Z,15.97
2023-05-19T05:43:15.316Z,16.14
2023-05-19T05:45:47.812Z,16.34
2023-05-19T05:48:17.232Z,16.49
2023-05-19T05:50:46.112Z,16.59
2023-05-19T05:53:19.160Z,16.67
2023-05-19T05:55:49.707Z,16.79
2023-05-19T05:58:18.262Z,16.92
2023-05-19T06:00:49.509Z,17.11
2023-05-19T06:03:18.010Z,17.30
2023-05-19T06:05:46.891Z,17.41
2023-05-19T06:08:15.471Z,17.52
2023-05-19T06:10:45.171Z,17.73
2023-05-19T06:13:18.866Z,17.92
2023-05-19T06:15:47.679Z,18.09
2023-05-19T06:18:24.518Z,18.30
2023-05-19T06:20:54.642Z,18.57
2023-05-19T06:23:26.875Z,18.82
2023-05-19T06:25:56.036Z,19.02
2023-05-19T06:28:24.279Z,19.25
2023-05-19T06:30:52.769Z,19.50
2023-05-19T06:33:55.549Z,19.67
2023-05-19T06:36:23.880Z,19.86
2023-05-19T06:38:52.525Z,20.13
2023-05-19T06:41:22.062Z,20.41
2023-05-19T06:43:52.249Z,20.65
2023-05-19T06:46:23.306Z,20.91
2023-05-19T06:48:52.067Z,21.22
2023-05-19T06:51:22.482Z,21.54
2023-05-19T06:53:54.261Z,21.72
2023-05-19T06:56:23.100Z,21.88
2023-05-19T06:58:52.648Z,22.09
2023-05-19T07:01:28.174Z,22.32
2023-05-19T07:03:56.962Z,22.58
2023-05-19T07:06:25.252Z,22.88
2023-05-19T07:08:53.828Z,23.16
2023-05-19T07:11:23.345Z,23.44
2023-05-19T07:13:51.548Z,23.64
2023-05-19T07:16:24.387Z,23.61
2023-05-19T07:18:52.672Z,23.56
2023-05-19T07:21:20.819Z,23.59
2023-05-19T07:23:49.697Z,23.62
2023-05-19T07:26:18.017Z,23.70
2023-05-19T07:28:46.249Z,23.80
2023-05-19T07:31:14.496Z,23.89
2023-05-19T07:33:42.568Z,23.91
2023-05-19T07:36:11.203Z,24.00
2023-05-19T07:38:39.552Z,24.16
2023-05-19T07:41:07.890Z,24.25
2023-05-19T07:43:36.207Z,24.21
2023-05-19T07:46:04.905Z,24.15
2023-05-19T07:48:33.050Z,24.08
2023-05-19T07:51:02.659Z,24.00
2023-05-19T07:53:30.847Z,23.80
2023-05-19T07:55:58.936Z,23.57
2023-05-19T07:58:27.190Z,23.46
2023-05-19T08:00:58.962Z,23.37
2023-05-19T08:03:27.664Z,23.40
2023-05-19T08:05:56.499Z,23.55
2023-05-19T08:08:24.653Z,23.68
2023-05-19T08:10:52.918Z,23.85
2023-05-19T08:13:22.020Z,24.02
2023-05-19T08:15:50.251Z,24.21
2023-05-19T08:18:25.633Z,24.41
2023-05-19T08:20:53.783Z,24.59
2023-05-19T08:23:22.416Z,24.78
2023-05-19T08:25:51.108Z,24.98
2023-05-19T08:28:19.133Z,25.13
2023-05-19T08:30:47.182Z,25.23
2023-05-19T08:33:15.322Z,25.33
2023-05-19T08:35:43.515Z,25.41
2023-05-19T08:38:11.652Z,25.50
2023-05-19T08:40:43.491Z,25.70
2023-05-19T08:43:11.871Z,25.99
2023-05-19T08:45:43.718Z,26.19
2023-05-19T08:48:13.523Z,26.24
2023-05-19T08:51:04.541Z,26.37
2023-05-19T08:53:37.845Z,26.37
2023-05-19T08:56:14.492Z,26.14
2023-05-19T08:58:44.309Z,25.91
2023-05-19T09:01:17.191Z,25.77
2023-05-19T09:03:50.150Z,25.73
2023-05-19T09:06:21.584Z,25.78
2023-05-19T09:08:49.792Z,25.82
2023-05-19T09:11:18.078Z,26.01
2023-05-19T09:13:47.104Z,26.32
2023-05-19T09:16:16.651Z,26.66
2023-05-19T09:18:58.307Z,26.99
2023-05-19T09:21:33.259Z,27.19
2023-05-19T09:24:09.651Z,27.10
2023-05-19T09:26:44.212Z,27.04
2023-05-19T09:29:17.969Z,27.06
2023-05-19T09:31:54.664Z,26.94
2023-05-19T09:34:25.043Z,26.83
2023-05-19T09:36:54.151Z,26.81
2023-05-19T09:39:25.286Z,26.91
2023-05-19T09:42:00.595Z,26.90
2023-05-19T09:44:32.753Z,26.85
2023-05-19T09:47:00.987Z,26.89
2023-05-19T09:49:30.555Z,26.83
2023-05-19T09:52:06.083Z,26.80
2023-05-19T09:54:34.501Z,26.78
2023-05-19T09:57:07.084Z,26.80
2023-05-19T09:59:39.056Z,26.79
2023-05-19T10:02:15.270Z,26.63
2023-05-19T10:04:44.070Z,26.43
2023-05-19T10:07:17.803Z,26.32
2023-05-19T10:09:46.316Z,26.25
2023-05-19T10:12:15.184Z,26.22
2023-05-19T10:14:43.262Z,26.18
2023-05-19T10:17:13.529Z,26.14
2023-05-19T10:19:44.871Z,26.16
2023-05-19T10:22:13.129Z,26.21
2023-05-19T10:24:41.231Z,26.29
2023-05-19T10:27:14.704Z,26.39
2023-05-19T10:29:51.040Z,26.45
2023-05-19T10:32:27.040Z,26.57
2023-05-19T10:35:09.551Z,26.74
2023-05-19T10:37:57.886Z,27.05
2023-05-19T10:40:33.334Z,27.37
2023-05-19T10:43:31.462Z,27.55
2023-05-19T10:46:01.217Z,27.58
2023-05-19T10:48:37.146Z,27.61
2023-05-19T10:51:12.288Z,27.54
2023-05-19T10:53:46.907Z,27.59
2023-05-19T10:56:34.013Z,27.76
2023-05-19T10:59:03.665Z,28.10
2023-05-19T11:01:36.144Z,28.42
2023-05-19T11:04:14.106Z,28.68
2023-05-19T11:06:51.564Z,28.99
2023-05-19T11:09:24.349Z,29.19
2023-05-19T11:12:03.892Z,29.25
2023-05-19T11:14:32.967Z,29.30
2023-05-19T11:17:01.487Z,29.40
2023-05-19T11:19:35.280Z,29.64
2023-05-19T11:22:13.755Z,29.83
2023-05-19T11:24:50.480Z,29.97
2023-05-19T11:27:38.355Z,30.08
2023-05-19T11:30:19.271Z,30.26
2023-05-19T11:32:48.432Z,30.41
2023-05-19T11:35:19.225Z,30.61
2023-05-19T11:37:50.702Z,30.82
2023-05-19T11:40:28.112Z,30.93
2023-05-19T11:42:56.486Z,31.10
2023-05-19T11:45:26.564Z,31.32
2023-05-19T11:48:02.447Z,31.57
2023-05-19T11:50:33.684Z,31.69
2023-05-19T11:53:02.110Z,31.86
2023-05-19T11:55:33.446Z,32.08
2023-05-19T11:58:04.533Z,32.25
2023-05-19T12:00:39.574Z,32.30
2023-05-19T12:03:09.293Z,32.38
2023-05-19T12:05:43.588Z,32.42
2023-05-19T12:08:14.274Z,32.42
2023-05-19T12:10:42.474Z,32.45
2023-05-19T12:13:11.135Z,32.45
2023-05-19T12:15:39.633Z,32.48
2023-05-19T12:18:08.652Z,32.54
2023-05-19T12:20:41.958Z,32.62
2023-05-19T12:23:12.666Z,32.68
2023-05-19T12:25:41.082Z,32.78
2023-05-19T12:28:09.902Z,32.89
2023-05-19T12:30:38.426Z,32.92
2023-05-19T12:33:06.796Z,32.83
2023-05-19T12:35:37.898Z,32.72
2023-05-19T12:38:08.814Z,32.62
2023-05-19T12:40:42.149Z,32.47
2023-05-19T12:43:23.142Z,32.38
2023-05-19T12:45:51.437Z,32.17
2023-05-19T12:48:22.983Z,32.12
2023-05-19T12:50:55.792Z,32.24
2023-05-19T12:53:28.002Z,32.34
2023-05-19T12:55:57.420Z,32.36
2023-05-19T12:58:27.997Z,32.25
2023-05-19T13:01:00.011Z,32.38
2023-05-19T13:03:28.500Z,32.46
2023-05-19T13:05:56.915Z,32.48
2023-05-19T13:08:25.253Z,32.46
2023-05-19T13:10:53.593Z,32.36
2023-05-19T13:13:22.070Z,32.40
2023-05-19T13:15:50.334Z,32.56
2023-05-19T13:18:19.013Z,32.74
2023-05-19T13:20:50.286Z,32.86
2023-05-19T13:23:18.765Z,32.73
2023-05-19T13:25:47.142Z,32.41
2023-05-19T13:28:15.827Z,32.07
2023-05-19T13:30:45.317Z,31.35
2023-05-19T13:33:13.836Z,29.94
2023-05-19T13:35:42.179Z,28.36
2023-05-19T13:38:10.953Z,27.07
2023-05-19T13:40:40.348Z,26.08
2023-05-19T13:43:10.104Z,25.20
2023-05-19T13:45:42.021Z,24.48
2023-05-19T13:48:11.899Z,23.77
2023-05-19T13:50:40.190Z,23.38
2023-05-19T13:53:08.295Z,23.02
2023-05-19T13:55:36.452Z,22.77
2023-05-19T13:58:04.581Z,22.53
2023-05-19T14:00:33.560Z,22.28
2023-05-19T14:03:02.058Z,22.03
2023-05-19T14:05:31.281Z,21.87
2023-05-19T14:08:01.259Z,21.75
2023-05-19T14:10:29.510Z,21.65
2023-05-19T14:15:34.482Z,21.45
2023-05-19T14:18:03.650Z,21.33
2023-05-19T14:20:33.485Z,21.27
2023-05-19T14:23:01.870Z,21.27
2023-05-19T14:25:29.935Z,21.34
2023-05-19T14:27:58.038Z,21.47
2023-05-19T14:30:26.163Z,21.64
2023-05-19T14:32:54.683Z,21.76
2023-05-19T14:35:23.168Z,21.88
2023-05-19T14:37:51.656Z,22.03
2023-05-19T14:40:19.828Z,22.14
2023-05-19T14:42:48.002Z,22.29
2023-05-19T14:45:16.402Z,22.45
2023-05-19T14:47:44.685Z,22.58
2023-05-19T14:50:12.980Z,22.74
2023-05-19T14:52:41.129Z,22.95
2023-05-19T14:55:09.974Z,23.15
2023-05-19T14:57:38.075Z,23.32
2023-05-19T15:00:09.152Z,23.52
2023-05-19T15:02:37.370Z,23.74
2023-05-19T15:05:05.829Z,23.91
2023-05-19T15:07:33.957Z,24.08
2023-05-19T15:10:04.717Z,24.28
2023-05-19T15:12:33.221Z,24.57
2023-05-19T15:15:01.357Z,24.93
2023-05-19T15:17:29.535Z,25.28
2023-05-19T15:19:58.130Z,25.53
2023-05-19T15:22:26.693Z,25.74
2023-05-19T15:24:54.868Z,26.03
2023-05-19T15:27:23.122Z,26.24
2023-05-19T15:29:51.644Z,26.37
2023-05-19T15:32:20.297Z,26.47
2023-05-19T15:34:48.552Z,26.60
2023-05-19T15:37:16.748Z,26.78
2023-05-19T15:39:45.016Z,26.98
2023-05-19T15:42:13.297Z,27.16
2023-05-19T15:44:41.587Z,27.36
2023-05-19T15:47:14.620Z,27.53
2023-05-19T15:49:44.393Z,27.53
2023-05-19T15:52:12.520Z,27.46
2023-05-19T15:54:40.932Z,27.34
2023-05-19T15:57:09.426Z,27.18
2023-05-19T15:59:37.544Z,27.02
2023-05-19T16:02:06.173Z,26.85
2023-05-19T16:04:34.432Z,26.69
2023-05-19T16:07:02.532Z,26.50
2023-05-19T16:09:30.571Z,26.35
2023-05-19T16:11:58.804Z,26.22
2023-05-19T16:14:31.081Z,26.09
2023-05-19T16:16:59.930Z,25.91
2023-05-19T16:19:28.192Z,25.70
2023-05-19T16:21:56.518Z,25.46
2023-05-19T16:24:24.757Z,25.25
2023-05-19T16:26:53.997Z,25.05
2023-05-19T16:29:22.545Z,24.88
2023-05-19T16:31:50.776Z,24.69
2023-05-19T16:34:19.076Z,24.45
2023-05-19T16:36:47.364Z,24.15
2023-05-19T16:39:15.732Z,23.89
2023-05-19T16:41:44.002Z,23.64
2023-05-19T16:44:14.425Z,23.42
2023-05-19T16:46:42.883Z,23.23
2023-05-19T16:49:11.230Z,23.05
2023-05-19T16:51:39.923Z,22.89
2023-05-19T16:54:10.033Z,22.75
2023-05-19T16:56:38.254Z,22.64
2023-05-19T16:59:06.445Z,22.53
2023-05-19T17:01:34.756Z,22.42
2023-05-19T17:04:03.161Z,22.25
2023-05-19T17:06:31.851Z,22.06
2023-05-19T17:08:59.991Z,21.82
2023-05-19T17:11:29.017Z,21.62
2023-05-19T17:13:57.389Z,21.45
2023-05-19T17:16:25.646Z,21.27
2023-05-19T17:18:53.943Z,21.14
2023-05-19T17:21:22.140Z,21.03
2023-05-19T17:23:50.220Z,20.96
2023-05-19T17:26:18.969Z,20.87
2023-05-19T17:28:47.157Z,20.77
2023-05-19T17:31:15.911Z,20.62
2023-05-19T17:33:45.062Z,20.47
2023-05-19T17:36:14.275Z,20.29
2023-05-19T17:38:42.571Z,20.16
2023-05-19T17:41:11.030Z,20.04
2023-05-19T17:43:40.628Z,19.89
2023-05-19T17:46:09.667Z,19.75
2023-05-19T17:48:39.953Z,19.59
2023-05-19T17:51:08.403Z,19.47
2023-05-19T17:53:37.065Z,19.35
2023-05-19T17:56:08.897Z,19.23
2023-05-19T17:58:37.419Z,19.12
2023-05-19T18:01:06.123Z,19.02
2023-05-19T18:03:34.918Z,18.93
2023-05-19T18:06:03.408Z,18.84
2023-05-19T18:08:32.702Z,18.72
2023-05-19T18:11:01.325Z,18.59
2023-05-19T18:13:29.490Z,18.49
2023-05-19T18:15:59.700Z,18.39
2023-05-19T18:18:28.080Z,18.31
2023-05-19T18:20:56.394Z,18.24
2023-05-19T18:23:24.692Z,18.17
2023-05-19T18:25:53.617Z,18.11
2023-05-19T18:28:21.917Z,18.03
2023-05-19T18:31:00.738Z,17.95
2023-05-19T18:33:31.109Z,17.87
2023-05-19T18:35:59.735Z,17.82
2023-05-19T18:38:27.873Z,17.76
2023-05-19T18:40:57.037Z,17.69
2023-05-19T18:43:25.391Z,17.64
2023-05-19T18:45:53.639Z,17.58
2023-05-19T18:48:22.560Z,17.52
2023-05-19T18:50:51.396Z,17.46
2023-05-19T18:53:21.963Z,17.42
2023-05-19T18:55:50.144Z,17.36
2023-05-19T18:58:18.941Z,17.30
2023-05-19T19:00:47.323Z,17.24
2023-05-19T19:03:16.056Z,17.18
2023-05-19T19:05:45.552Z,17.14
2023-05-19T19:08:13.724Z,17.10
2023-05-19T19:10:42.611Z,17.04
2023-05-19T19:13:10.922Z,17.01
2023-05-19T19:15:40.264Z,16.98
2023-05-19T19:18:08.891Z,16.97
2023-05-19T19:20:37.107Z,16.95
2023-05-19T19:23:06.845Z,16.95
2023-05-19T19:25:35.701Z,16.93
2023-05-19T19:28:04.049Z,16.91
2023-05-19T19:30:32.546Z,16.89
2023-05-19T19:33:01.131Z,16.87
2023-05-19T19:35:29.782Z,16.85
2023-05-19T19:37:58.884Z,16.83
2023-05-19T19:40:27.179Z,16.80
2023-05-19T19:42:55.598Z,16.77
2023-05-19T19:45:23.977Z,16.74
2023-05-19T19:47:52.745Z,16.70
2023-05-19T19:50:20.973Z,16.68
2023-05-19T19:52:49.139Z,16.65
2023-05-19T19:55:17.728Z,16.62
2023-05-19T19:57:49.564Z,16.58
2023-05-19T20:00:18.581Z,16.54
2023-05-19T20:05:20.226Z,16.46
2023-05-19T20:07:48.527Z,16.39
2023-05-19T20:10:16.788Z,16.33
2023-05-19T20:12:45.083Z,16.27
2023-05-19T20:15:13.343Z,16.22
2023-05-19T20:17:41.793Z,16.16
2023-05-19T20:20:11.849Z,16.09
2023-05-19T20:22:40.260Z,16.03
2023-05-19T20:25:09.031Z,15.97
2023-05-19T20:27:37.760Z,15.91
2023-05-19T20:30:06.653Z,15.85
2023-05-19T20:32:35.236Z,15.79
2023-05-19T20:35:03.541Z,15.74
2023-05-19T20:37:31.840Z,15.67
2023-05-19T20:40:00.801Z,15.61
2023-05-19T20:42:29.037Z,15.55
2023-05-19T20:44:57.475Z,15.48
2023-05-19T20:47:26.484Z,15.43
2023-05-19T20:49:55.571Z,15.36
2023-05-19T20:52:23.824Z,15.30
2023-05-19T20:54:51.956Z,15.25
2023-05-19T20:57:20.214Z,15.19
2023-05-19T20:59:48.525Z,15.13
2023-05-19T21:02:16.686Z,15.07
2023-05-19T21:04:46.395Z,15.03
2023-05-19T21:07:14.779Z,14.98
2023-05-19T21:09:46.397Z,14.94
2023-05-19T21:12:16.257Z,14.91
2023-05-19T21:14:44.478Z,14.88
2023-05-19T21:17:12.762Z,14.85
2023-05-19T21:19:41.343Z,14.81
2023-05-19T21:22:09.708Z,14.77
2023-05-19T21:24:38.079Z,14.73
2023-05-19T21:27:06.331Z,14.69
2023-05-19T21:29:34.650Z,14.65
2023-05-19T21:32:03.072Z,14.60
2023-05-19T21:34:31.412Z,14.55
2023-05-19T21:36:59.771Z,14.51
2023-05-19T21:39:28.152Z,14.46
2023-05-19T21:41:56.405Z,14.40
2023-05-19T21:44:25.273Z,14.35
2023-05-19T21:46:53.767Z,14.28
2023-05-19T21:49:22.053Z,14.23
2023-05-19T21:51:50.602Z,14.17
2023-05-19T21:54:18.872Z,14.12
2023-05-19T21:56:47.011Z,14.06
2023-05-19T21:59:15.311Z,14.01
2023-05-19T22:01:43.592Z,13.96
2023-05-19T22:04:12.061Z,13.92
2023-05-19T22:06:40.412Z,13.86
2023-05-19T22:09:09.331Z,13.81
2023-05-19T22:11:37.609Z,13.75
2023-05-19T22:14:05.968Z,13.68
2023-05-19T22:16:35.477Z,13.64
2023-05-19T22:19:03.805Z,13.58
2023-05-19T22:21:32.144Z,13.52
2023-05-19T22:24:00.795Z,13.47
2023-05-19T22:26:29.602Z,13.41
2023-05-19T22:28:58.064Z,13.35
2023-05-19T22:31:26.276Z,13.30
2023-05-19T22:33:56.105Z,13.24
2023-05-19T22:36:24.550Z,13.17
2023-05-19T22:38:52.872Z,13.09
2023-05-19T22:41:21.844Z,13.03
2023-05-19T22:43:50.364Z,12.96
2023-05-19T22:46:18.738Z,12.90
2023-05-19T22:48:46.984Z,12.84
2023-05-19T22:51:15.631Z,12.79
2023-05-19T22:53:46.621Z,12.73
2023-05-19T22:56:15.462Z,12.67
2023-05-19T22:58:43.718Z,12.62
2023-05-19T23:01:12.034Z,12.58
2023-05-19T23:03:40.477Z,12.54
2023-05-19T23:06:08.764Z,12.49
2023-05-19T23:08:36.952Z,12.45
2023-05-19T23:11:05.248Z,12.40
2023-05-19T23:13:33.666Z,12.34
2023-05-19T23:16:01.909Z,12.29
2023-05-19T23:18:30.167Z,12.23
2023-05-19T23:20:58.384Z,12.18
2023-05-19T23:23:27.644Z,12.14
2023-05-19T23:25:56.998Z,12.12
2023-05-19T23:28:25.380Z,12.09
2023-05-19T23:30:54.469Z,12.08
2023-05-19T23:33:23.205Z,12.06
2023-05-19T23:35:51.603Z,12.03
2023-05-19T23:38:19.916Z,12.01
2023-05-19T23:40:48.197Z,11.98
2023-05-19T23:43:16.383Z,11.95
2023-05-19T23:45:44.714Z,11.92
2023-05-19T23:48:13.022Z,11.89
2023-05-19T23:50:41.364Z,11.86
2023-05-19T23:53:09.663Z,11.82
2023-05-19T23:55:37.868Z,11.76
2023-05-19T23:58:06.355Z,11.71
